createdAt,value
2018-07-23T00:00:34.148Z,16.07
2018-07-23T00:03:03.104Z,15.47
2018-07-23T00:05:31.961Z,15.93
2018-07-23T00:08:00.996Z,16.20
2018-07-23T00:10:29.856Z,16.60
2018-07-23T00:12:58.812Z,16.43
2018-07-23T00:15:27.287Z,16.77
2018-07-23T00:17:56.188Z,16.57
2018-07-23T00:20:25.069Z,15.80
2018-07-23T00:22:53.566Z,16.20
2018-07-23T00:25:22.545Z,16.50
2018-07-23T00:27:51.484Z,20.30
2018-07-23T00:30:20.398Z,16.77
2018-07-23T00:32:49.290Z,17.40
2018-07-23T00:35:18.226Z,16.73
2018-07-23T00:37:47.093Z,17.53
2018-07-23T00:40:16.110Z,18.30
2018-07-23T00:42:45.016Z,17.00
2018-07-23T00:45:14.088Z,17.50
2018-07-23T00:47:42.595Z,17.30
2018-07-23T00:50:11.534Z,17.70
2018-07-23T00:52:40.425Z,17.93
2018-07-23T00:55:09.397Z,17.57
2018-07-23T00:57:38.307Z,18.20
2018-07-23T01:00:07.377Z,17.60
2018-07-23T01:02:36.232Z,17.93
2018-07-23T01:05:05.228Z,17.73
2018-07-23T01:07:34.124Z,17.77
2018-07-23T01:10:03.090Z,17.67
2018-07-23T01:12:33.187Z,17.67
2018-07-23T01:15:02.164Z,17.03
2018-07-23T01:17:31.105Z,17.20
2018-07-23T01:20:00.551Z,17.60
2018-07-23T01:22:29.842Z,16.50
2018-07-23T01:24:59.176Z,18.43
2018-07-23T01:27:28.107Z,17.53
2018-07-23T01:29:56.976Z,16.57
2018-07-23T01:32:25.471Z,21.93
2018-07-23T01:34:54.394Z,15.57
2018-07-23T01:37:23.320Z,16.23
2018-07-23T01:39:52.192Z,15.97
2018-07-23T01:42:21.103Z,16.23
2018-07-23T01:44:50.027Z,16.30
2018-07-23T01:47:18.896Z,17.10
2018-07-23T01:49:47.751Z,16.40
2018-07-23T01:52:16.636Z,16.13
2018-07-23T01:54:45.488Z,18.43
2018-07-23T01:57:14.373Z,16.27
2018-07-23T01:59:42.959Z,16.43
2018-07-23T02:02:11.431Z,15.73
2018-07-23T02:04:39.980Z,16.50
2018-07-23T02:07:09.002Z,16.70
2018-07-23T02:09:37.583Z,15.43
2018-07-23T02:12:06.577Z,16.07
2018-07-23T02:14:35.492Z,15.40
2018-07-23T02:17:05.236Z,18.53
2018-07-23T02:19:34.128Z,16.43
2018-07-23T02:22:03.062Z,16.27
2018-07-23T02:24:31.981Z,16.47
2018-07-23T02:27:01.581Z,16.37
2018-07-23T02:29:30.471Z,15.63
2018-07-23T02:31:59.387Z,17.97
2018-07-23T02:34:28.243Z,17.13
2018-07-23T02:36:56.775Z,15.60
2018-07-23T02:39:26.027Z,15.37
2018-07-23T02:41:54.922Z,15.90
2018-07-23T02:44:23.904Z,17.93
2018-07-23T02:46:52.396Z,16.03
2018-07-23T02:49:21.326Z,16.40
2018-07-23T02:51:50.255Z,15.80
2018-07-23T02:54:19.168Z,15.70
2018-07-23T02:56:49.292Z,15.80
2018-07-23T02:59:18.230Z,16.03
2018-07-23T03:01:47.168Z,15.87
2018-07-23T03:04:16.076Z,16.23
2018-07-23T03:06:45.008Z,16.13
2018-07-23T03:09:14.577Z,16.00
2018-07-23T03:11:44.052Z,16.90
2018-07-23T03:14:13.005Z,16.10
2018-07-23T03:16:41.978Z,16.17
2018-07-23T03:19:10.892Z,17.40
2018-07-23T03:21:39.859Z,16.60
2018-07-23T03:24:08.799Z,16.80
2018-07-23T03:26:38.105Z,17.10
2018-07-23T03:29:07.068Z,15.90
2018-07-23T03:31:36.041Z,16.83
2018-07-23T03:34:05.074Z,15.63
2018-07-23T03:36:34.108Z,15.50
2018-07-23T03:39:03.121Z,16.70
2018-07-23T03:41:32.048Z,15.90
2018-07-23T03:44:01.006Z,15.67
2018-07-23T03:46:29.940Z,16.00
2018-07-23T03:48:58.872Z,15.90
2018-07-23T03:51:27.864Z,15.67
2018-07-23T03:53:56.760Z,15.27
2018-07-23T03:56:25.675Z,16.17
2018-07-23T03:58:54.576Z,15.70
2018-07-23T04:01:23.489Z,15.57
2018-07-23T04:03:52.412Z,16.63
2018-07-23T04:06:21.296Z,16.83
2018-07-23T04:08:49.806Z,16.83
2018-07-23T04:11:18.700Z,16.70
2018-07-23T04:13:47.638Z,17.57
2018-07-23T04:16:16.604Z,16.77
2018-07-23T04:18:45.459Z,16.60
2018-07-23T04:21:14.696Z,16.67
2018-07-23T04:23:43.607Z,15.70
2018-07-23T04:26:12.480Z,15.00
2018-07-23T04:28:41.388Z,15.07
2018-07-23T04:31:10.300Z,15.53
2018-07-23T04:33:38.812Z,16.87
2018-07-23T04:36:07.695Z,15.20
2018-07-23T04:38:36.638Z,16.93
2018-07-23T04:41:05.524Z,15.20
2018-07-23T04:43:34.463Z,15.63
2018-07-23T04:46:03.373Z,15.03
2018-07-23T04:48:32.308Z,15.67
2018-07-23T04:51:02.010Z,15.73
2018-07-23T04:53:31.256Z,16.37
2018-07-23T04:56:00.539Z,16.10
2018-07-23T04:58:29.032Z,14.63
2018-07-23T05:00:58.068Z,14.17
2018-07-23T05:03:26.962Z,15.10
2018-07-23T05:05:55.872Z,14.53
2018-07-23T05:08:24.834Z,14.47
2018-07-23T05:10:53.740Z,14.13
2018-07-23T05:13:23.188Z,14.87
2018-07-23T05:15:52.156Z,16.20
2018-07-23T05:18:21.744Z,15.47
2018-07-23T05:20:50.723Z,14.83
2018-07-23T05:23:19.657Z,15.27
2018-07-23T05:25:49.087Z,15.80
2018-07-23T05:28:18.111Z,15.47
2018-07-23T05:30:47.071Z,15.87
2018-07-23T05:33:16.416Z,17.03
2018-07-23T05:35:45.352Z,17.80
2018-07-23T05:38:13.901Z,17.03
2018-07-23T05:40:42.814Z,17.07
2018-07-23T05:43:11.328Z,16.77
2018-07-23T05:45:40.225Z,16.27
2018-07-23T05:48:10.259Z,16.00
2018-07-23T05:50:39.188Z,16.43
2018-07-23T05:53:08.416Z,18.30
2018-07-23T05:55:37.520Z,17.73
2018-07-23T05:58:07.415Z,17.37
2018-07-23T06:00:36.384Z,17.07
2018-07-23T06:03:05.593Z,18.40
2018-07-23T06:05:34.556Z,17.00
2018-07-23T06:08:04.928Z,18.17
2018-07-23T06:10:33.886Z,18.57
2018-07-23T06:13:02.840Z,19.17
2018-07-23T06:15:31.864Z,18.70
2018-07-23T06:18:00.760Z,18.90
2018-07-23T06:20:29.973Z,20.13
2018-07-23T06:22:58.926Z,18.27
2018-07-23T06:25:27.821Z,18.07
2018-07-23T06:27:56.702Z,17.90
2018-07-23T06:30:25.666Z,18.57
2018-07-23T06:32:54.624Z,17.77
2018-07-23T06:35:23.607Z,18.50
2018-07-23T06:37:52.939Z,19.57
2018-07-23T06:40:21.719Z,18.73
2018-07-23T06:42:50.944Z,18.90
2018-07-23T06:45:19.844Z,18.57
2018-07-23T06:47:49.243Z,18.60
2018-07-23T06:50:18.156Z,19.10
2018-07-23T06:52:53.738Z,19.03
2018-07-23T06:55:22.694Z,19.97
2018-07-23T06:57:52.232Z,18.63
2018-07-23T07:00:21.163Z,18.37
2018-07-23T07:02:50.068Z,18.03
2018-07-23T07:05:19.804Z,18.60
2018-07-23T07:07:48.829Z,17.77
2018-07-23T07:10:17.945Z,19.23
2018-07-23T07:12:46.936Z,19.77
2018-07-23T07:15:15.907Z,17.73
2018-07-23T07:17:44.821Z,18.27
2018-07-23T07:20:13.737Z,15.07
2018-07-23T07:22:42.687Z,16.00
2018-07-23T07:25:11.634Z,15.57
2018-07-23T07:27:40.553Z,15.57
2018-07-23T07:30:10.036Z,19.90
2018-07-23T07:32:38.947Z,17.30
2018-07-23T07:35:07.929Z,17.63
2018-07-23T07:37:36.808Z,17.30
2018-07-23T07:40:05.769Z,20.10
2018-07-23T07:42:34.688Z,20.70
2018-07-23T07:45:03.652Z,17.67
2018-07-23T07:47:32.641Z,19.47
2018-07-23T07:50:03.104Z,16.90
2018-07-23T07:52:32.041Z,17.90
2018-07-23T07:55:00.533Z,17.03
2018-07-23T07:57:29.408Z,15.73
2018-07-23T07:59:58.328Z,13.90
2018-07-23T08:02:28.033Z,14.93
2018-07-23T08:04:56.932Z,14.87
2018-07-23T08:07:25.874Z,15.53
2018-07-23T08:09:54.812Z,16.43
2018-07-23T08:12:24.167Z,19.00
2018-07-23T08:14:53.108Z,19.27
2018-07-23T08:17:22.048Z,16.33
2018-07-23T08:19:50.977Z,18.07
2018-07-23T08:22:19.864Z,17.93
2018-07-23T08:24:49.115Z,16.63
2018-07-23T08:27:18.044Z,15.53
2018-07-23T08:29:46.998Z,16.97
2018-07-23T08:32:15.911Z,18.13
2018-07-23T08:34:44.863Z,15.33
2018-07-23T08:37:13.808Z,33.40
2018-07-23T08:39:42.345Z,20.07
2018-07-23T08:42:11.244Z,13.40
2018-07-23T08:44:40.095Z,13.70
2018-07-23T08:47:08.987Z,12.27
2018-07-23T08:49:37.939Z,11.43
2018-07-23T08:52:06.824Z,14.33
2018-07-23T08:54:35.699Z,13.60
2018-07-23T08:57:04.627Z,15.03
2018-07-23T08:59:33.570Z,11.10
2018-07-23T09:02:02.470Z,12.13
2018-07-23T09:04:31.396Z,12.93
2018-07-23T09:07:00.304Z,13.17
2018-07-23T09:09:31.193Z,15.00
2018-07-23T09:12:00.144Z,12.60
2018-07-23T09:14:29.041Z,14.70
2018-07-23T09:16:58.950Z,16.13
2018-07-23T09:19:27.865Z,15.23
2018-07-23T09:21:56.748Z,18.60
2018-07-23T09:24:25.677Z,14.33
2018-07-23T09:26:54.618Z,14.83
2018-07-23T09:29:23.542Z,16.77
2018-07-23T09:31:52.444Z,17.00
2018-07-23T09:34:21.336Z,15.03
2018-07-23T09:36:50.298Z,16.80
2018-07-23T09:39:19.180Z,14.13
2018-07-23T09:41:48.075Z,12.87
2018-07-23T09:44:16.984Z,27.97
2018-07-23T09:46:45.888Z,15.67
2018-07-23T09:49:14.737Z,11.07
2018-07-23T09:51:43.624Z,10.83
2018-07-23T09:54:12.546Z,9.07
2018-07-23T09:56:41.408Z,9.43
2018-07-23T09:59:10.678Z,8.13
2018-07-23T10:01:39.531Z,7.27
2018-07-23T10:04:08.467Z,8.13
2018-07-23T10:06:37.363Z,8.53
2018-07-23T10:09:07.232Z,7.13
2018-07-23T10:11:36.144Z,7.67
2018-07-23T10:14:05.088Z,8.30
2018-07-23T10:16:34.049Z,6.50
2018-07-23T10:19:02.536Z,8.37
2018-07-23T10:21:31.792Z,7.87
2018-07-23T10:24:00.657Z,7.40
2018-07-23T10:26:29.569Z,8.77
2018-07-23T10:28:58.452Z,7.40
2018-07-23T10:31:27.441Z,9.43
2018-07-23T10:33:56.579Z,8.20
2018-07-23T10:36:25.544Z,8.67
2018-07-23T10:38:54.468Z,7.57
2018-07-23T10:41:23.325Z,8.10
2018-07-23T10:43:52.217Z,8.13
2018-07-23T10:46:21.075Z,7.97
2018-07-23T10:48:49.956Z,7.83
2018-07-23T10:51:18.904Z,10.20
2018-07-23T10:53:47.877Z,8.47
2018-07-23T10:56:16.837Z,9.87
2018-07-23T10:58:45.772Z,7.40
2018-07-23T11:01:14.721Z,7.70
2018-07-23T11:03:43.630Z,8.03
2018-07-23T11:06:12.517Z,7.87
2018-07-23T11:08:41.479Z,8.47
2018-07-23T11:11:10.417Z,8.40
2018-07-23T11:13:39.274Z,8.10
2018-07-23T11:16:09.204Z,9.03
2018-07-23T11:18:38.168Z,8.87
2018-07-23T11:21:07.132Z,9.87
2018-07-23T11:23:36.022Z,9.10
2018-07-23T11:26:04.920Z,9.33
2018-07-23T11:28:34.904Z,9.33
2018-07-23T11:31:03.917Z,9.50
2018-07-23T11:33:32.841Z,11.17
2018-07-23T11:36:01.845Z,12.27
2018-07-23T11:38:30.788Z,9.83
2018-07-23T11:40:59.640Z,15.30
2018-07-23T11:43:28.513Z,24.47
2018-07-23T11:45:57.482Z,12.37
2018-07-23T11:48:26.531Z,10.40
2018-07-23T11:50:55.485Z,9.87
2018-07-23T11:53:24.439Z,10.40
2018-07-23T11:55:53.580Z,10.97
2018-07-23T11:58:22.608Z,9.97
2018-07-23T12:00:51.555Z,9.10
2018-07-23T12:03:19.985Z,10.90
2018-07-23T12:05:48.883Z,10.37
2018-07-23T12:08:17.843Z,10.63
2018-07-23T12:10:46.769Z,10.10
2018-07-23T12:13:15.648Z,9.90
2018-07-23T12:15:44.584Z,9.70
2018-07-23T12:18:13.568Z,9.93
2018-07-23T12:20:42.453Z,10.57
2018-07-23T12:23:11.409Z,11.33
2018-07-23T12:25:40.297Z,10.17
2018-07-23T12:28:09.200Z,9.50
2018-07-23T12:30:38.084Z,9.93
2018-07-23T12:33:07.998Z,8.93
2018-07-23T12:35:36.972Z,11.60
2018-07-23T12:38:05.920Z,10.97
2018-07-23T12:40:34.799Z,10.23
2018-07-23T12:43:03.775Z,11.57
2018-07-23T12:45:33.306Z,8.17
2018-07-23T12:48:02.205Z,9.83
2018-07-23T12:50:31.119Z,9.67
2018-07-23T12:52:59.979Z,9.43
2018-07-23T12:55:28.950Z,11.83
2018-07-23T12:57:58.576Z,8.87
2018-07-23T13:00:28.483Z,9.47
2018-07-23T13:02:57.403Z,8.70
2018-07-23T13:05:30.437Z,9.67
2018-07-23T13:07:59.955Z,10.30
2018-07-23T13:10:29.740Z,10.53
2018-07-23T13:12:59.093Z,9.87
2018-07-23T13:15:28.069Z,9.00
2018-07-23T13:17:57.042Z,9.67
2018-07-23T13:20:25.936Z,10.07
2018-07-23T13:22:55.484Z,9.50
2018-07-23T13:25:24.392Z,9.47
2018-07-23T13:27:53.451Z,9.47
2018-07-23T13:30:22.388Z,10.13
2018-07-23T13:32:51.454Z,9.73
2018-07-23T13:35:20.405Z,9.23
2018-07-23T13:37:49.328Z,9.70
2018-07-23T13:40:18.256Z,11.97
2018-07-23T13:42:47.251Z,11.33
2018-07-23T13:45:16.221Z,9.70
2018-07-23T13:47:45.264Z,11.00
2018-07-23T13:50:14.219Z,9.17
2018-07-23T13:52:43.119Z,10.57
2018-07-23T13:55:12.148Z,10.07
2018-07-23T13:57:41.107Z,9.77
2018-07-23T14:00:10.030Z,12.47
2018-07-23T14:02:38.910Z,10.00
2018-07-23T14:05:07.977Z,11.00
2018-07-23T14:07:36.896Z,11.37
2018-07-23T14:10:05.883Z,9.73
2018-07-23T14:12:34.820Z,9.23
2018-07-23T14:15:03.855Z,11.53
2018-07-23T14:17:32.286Z,10.23
2018-07-23T14:20:01.251Z,12.80
2018-07-23T14:22:30.197Z,8.83
2018-07-23T14:24:59.217Z,9.50
2018-07-23T14:27:28.111Z,12.00
2018-07-23T14:29:57.108Z,10.47
2018-07-23T14:32:26.049Z,8.73
2018-07-23T14:34:54.952Z,8.77
2018-07-23T14:37:23.827Z,9.13
2018-07-23T14:39:52.753Z,10.03
2018-07-23T14:42:21.652Z,16.60
2018-07-23T14:44:51.599Z,14.50
2018-07-23T14:47:20.520Z,10.80
2018-07-23T14:49:49.447Z,9.37
2018-07-23T14:52:18.063Z,12.23
2018-07-23T14:54:46.944Z,8.70
2018-07-23T14:57:15.843Z,8.67
2018-07-23T14:59:44.740Z,12.80
2018-07-23T15:02:13.628Z,9.63
2018-07-23T15:04:43.125Z,12.25
2018-07-23T15:07:12.045Z,7.97
2018-07-23T15:09:40.940Z,13.13
2018-07-23T15:12:09.924Z,11.00
2018-07-23T15:14:38.786Z,8.85
2018-07-23T15:17:07.684Z,8.95
2018-07-23T15:19:36.580Z,10.18
2018-07-23T15:22:05.545Z,9.28
2018-07-23T15:24:34.472Z,11.75
2018-07-23T15:27:03.718Z,8.78
2018-07-23T15:29:32.629Z,8.45
2018-07-23T15:32:01.534Z,9.35
2018-07-23T15:34:30.408Z,9.55
2018-07-23T15:36:59.373Z,9.98
2018-07-23T15:39:27.911Z,8.13
2018-07-23T15:41:56.824Z,9.85
2018-07-23T15:44:25.903Z,8.75
2018-07-23T15:46:54.878Z,13.45
2018-07-23T15:49:23.792Z,13.40
2018-07-23T15:51:52.712Z,10.32
2018-07-23T15:54:21.209Z,11.33
2018-07-23T15:56:50.100Z,10.95
2018-07-23T15:59:19.007Z,10.93
2018-07-23T16:01:47.940Z,11.78
2018-07-23T16:04:16.851Z,9.30
2018-07-23T16:06:45.927Z,10.78
2018-07-23T16:09:15.540Z,8.85
2018-07-23T16:11:44.420Z,11.15
2018-07-23T16:14:13.408Z,9.13
2018-07-23T16:16:42.290Z,9.95
2018-07-23T16:19:11.255Z,10.03
2018-07-23T16:21:40.176Z,9.05
2018-07-23T16:24:08.655Z,10.05
2018-07-23T16:26:37.564Z,10.58
2018-07-23T16:29:06.563Z,8.93
2018-07-23T16:31:35.428Z,8.60
2018-07-23T16:34:04.332Z,10.00
2018-07-23T16:36:33.279Z,11.20
2018-07-23T16:39:02.298Z,10.10
2018-07-23T16:41:31.240Z,10.15
2018-07-23T16:44:00.212Z,10.55
2018-07-23T16:46:29.179Z,9.70
2018-07-23T16:48:58.068Z,10.93
2018-07-23T16:51:26.958Z,12.20
2018-07-23T16:53:56.415Z,15.75
2018-07-23T16:56:25.341Z,9.08
2018-07-23T16:58:54.241Z,11.15
2018-07-23T17:01:23.168Z,10.88
2018-07-23T17:03:52.188Z,9.93
2018-07-23T17:06:21.451Z,10.65
2018-07-23T17:08:50.325Z,10.13
2018-07-23T17:11:19.275Z,10.05
2018-07-23T17:13:48.204Z,9.45
2018-07-23T17:16:17.120Z,11.00
2018-07-23T17:18:46.119Z,10.88
2018-07-23T17:21:15.096Z,9.68
2018-07-23T17:23:45.099Z,11.60
2018-07-23T17:26:14.335Z,10.68
2018-07-23T17:28:43.443Z,12.37
2018-07-23T17:31:12.482Z,9.83
2018-07-23T17:33:41.544Z,13.35
2018-07-23T17:36:10.584Z,13.00
2018-07-23T17:38:39.656Z,10.65
2018-07-23T17:41:08.750Z,9.75
2018-07-23T17:43:37.839Z,15.78
2018-07-23T17:46:06.965Z,11.18
2018-07-23T17:48:36.134Z,16.57
2018-07-23T17:51:05.244Z,9.15
2018-07-23T17:53:34.254Z,11.00
2018-07-23T17:56:03.981Z,10.23
2018-07-23T17:58:33.078Z,13.53
2018-07-23T18:01:03.130Z,10.03
2018-07-23T18:03:32.398Z,12.05
2018-07-23T18:06:01.502Z,11.83
2018-07-23T18:08:30.984Z,10.05
2018-07-23T18:11:00.094Z,11.85
2018-07-23T18:13:29.164Z,13.83
2018-07-23T18:15:58.318Z,11.88
2018-07-23T18:18:27.511Z,11.90
2018-07-23T18:20:56.563Z,10.98
2018-07-23T18:23:25.685Z,11.18
2018-07-23T18:25:54.855Z,12.53
2018-07-23T18:28:23.996Z,10.75
2018-07-23T18:30:53.100Z,12.18
2018-07-23T18:33:22.206Z,10.90
2018-07-23T18:35:51.719Z,9.88
2018-07-23T18:38:22.496Z,13.45
2018-07-23T18:40:51.049Z,11.25
2018-07-23T18:43:20.112Z,12.63
2018-07-23T18:45:49.212Z,15.33
2018-07-23T18:49:34.914Z,12.17
2018-07-23T18:52:04.060Z,9.87
2018-07-23T18:54:33.884Z,12.20
2018-07-23T18:57:04.276Z,12.47
2018-07-23T18:59:33.494Z,10.93
2018-07-23T19:02:03.733Z,13.33
2018-07-23T19:04:32.919Z,14.60
2018-07-23T19:07:02.071Z,11.93
2018-07-23T19:09:31.372Z,13.33
2018-07-23T19:12:00.854Z,11.47
2018-07-23T19:14:29.947Z,10.50
2018-07-23T19:17:00.040Z,12.70
2018-07-23T19:19:28.624Z,11.27
2018-07-23T19:21:58.610Z,14.00
2018-07-23T19:24:28.174Z,10.60
2018-07-23T19:26:57.300Z,12.07
2018-07-23T19:29:26.385Z,12.23
2018-07-23T19:31:55.846Z,10.47
2018-07-23T19:34:24.469Z,10.97
2018-07-23T19:36:54.026Z,13.03
2018-07-23T19:39:23.433Z,13.57
2018-07-23T19:41:52.617Z,11.70
2018-07-23T19:44:21.690Z,12.87
2018-07-23T19:46:51.210Z,11.87
2018-07-23T19:49:21.036Z,10.60
2018-07-23T19:51:50.216Z,14.33
2018-07-23T19:54:19.502Z,11.10
2018-07-23T19:56:48.553Z,11.00
2018-07-23T19:59:17.553Z,11.63
2018-07-23T20:01:46.549Z,10.40
2018-07-23T20:04:15.592Z,12.97
2018-07-23T20:06:44.571Z,13.57
2018-07-23T20:09:17.359Z,11.80
2018-07-23T20:12:05.091Z,11.27
2018-07-23T20:15:00.362Z,10.97
2018-07-23T20:17:29.383Z,11.30
2018-07-23T20:19:59.870Z,11.43
2018-07-23T20:22:28.583Z,13.23
2018-07-23T20:24:58.210Z,11.00
2018-07-23T20:27:27.198Z,13.40
2018-07-23T20:29:56.220Z,12.17
2018-07-23T20:32:25.200Z,15.03
2018-07-23T20:35:01.473Z,16.77
2018-07-23T20:37:30.393Z,12.43
2018-07-23T20:39:59.323Z,11.70
2018-07-23T20:42:28.329Z,11.20
2018-07-23T20:44:57.299Z,12.13
2018-07-23T20:47:26.345Z,10.63
2018-07-23T20:49:55.444Z,11.07
2018-07-23T20:52:24.443Z,12.57
2018-07-23T20:54:53.678Z,13.03
2018-07-23T20:57:22.754Z,11.57
2018-07-23T20:59:51.457Z,10.87
2018-07-23T21:02:20.447Z,11.53
2018-07-23T21:04:49.841Z,11.30
2018-07-23T21:07:19.661Z,12.90
2018-07-23T21:09:49.444Z,11.30
2018-07-23T21:12:18.744Z,15.40
2018-07-23T21:14:47.728Z,11.73
2018-07-23T21:17:16.780Z,11.10
2018-07-23T21:19:45.807Z,10.67
2018-07-23T21:22:15.681Z,12.07
2018-07-23T21:24:44.676Z,14.13
2018-07-23T21:27:14.183Z,11.27
2018-07-23T21:29:43.287Z,12.00
2018-07-23T21:32:12.286Z,12.00
2018-07-23T21:34:41.582Z,12.03
2018-07-23T21:37:10.617Z,11.13
2018-07-23T21:39:39.679Z,14.47
2018-07-23T21:42:08.944Z,12.30
2018-07-23T21:44:38.781Z,11.53
2018-07-23T21:47:07.646Z,12.20
2018-07-23T21:49:36.672Z,14.10
2018-07-23T21:52:06.543Z,12.00
2018-07-23T21:54:35.667Z,12.80
2018-07-23T21:57:04.674Z,11.90
2018-07-23T21:59:33.604Z,12.83
2018-07-23T22:02:02.969Z,11.40
2018-07-23T22:04:31.917Z,12.93
2018-07-23T22:07:00.459Z,13.27
2018-07-23T22:09:29.361Z,11.77
2018-07-23T22:11:58.412Z,13.87
2018-07-23T22:14:27.340Z,11.43
2018-07-23T22:16:56.275Z,14.10
2018-07-23T22:19:25.214Z,15.63
2018-07-23T22:21:54.180Z,11.50
2018-07-23T22:24:24.352Z,11.93
2018-07-23T22:26:53.734Z,12.37
2018-07-23T22:29:22.736Z,13.33
2018-07-23T22:31:53.431Z,12.37
2018-07-23T22:34:22.391Z,13.67
2018-07-23T22:36:51.331Z,13.70
2018-07-23T22:39:21.688Z,12.07
2018-07-23T22:41:50.647Z,12.80
2018-07-23T22:44:19.634Z,12.87
2018-07-23T22:46:48.579Z,12.93
2018-07-23T22:49:17.939Z,15.30
2018-07-23T22:51:46.843Z,14.10
2018-07-23T22:54:15.717Z,12.97
2018-07-23T22:56:44.685Z,12.43
2018-07-23T22:59:13.575Z,14.23
2018-07-23T23:01:42.543Z,12.60
2018-07-23T23:04:11.585Z,14.77
2018-07-23T23:06:40.492Z,13.10
2018-07-23T23:09:10.447Z,17.13
2018-07-23T23:11:38.983Z,15.03
2018-07-23T23:14:07.883Z,17.17
2018-07-23T23:16:36.919Z,14.70
2018-07-23T23:19:05.409Z,14.83
2018-07-23T23:21:34.487Z,13.20
2018-07-23T23:24:03.395Z,12.03
2018-07-23T23:26:32.284Z,12.17
2018-07-23T23:29:01.310Z,15.57
2018-07-23T23:31:30.186Z,12.33
2018-07-23T23:33:59.103Z,12.27
2018-07-23T23:36:27.971Z,13.63
2018-07-23T23:38:56.840Z,12.93
2018-07-23T23:41:26.804Z,13.27
2018-07-23T23:43:55.677Z,15.37
2018-07-23T23:46:24.629Z,13.67
2018-07-23T23:48:53.484Z,12.93
2018-07-23T23:51:22.442Z,12.57
2018-07-23T23:53:51.312Z,14.10
2018-07-23T23:56:20.263Z,12.77
2018-07-23T23:58:49.232Z,11.93
